TimeEST,TemperatureF,Dew PointF,Humidity,Sea Level PressureIn,VisibilityMPH,Wind Direction,Wind SpeedMPH,Gust SpeedMPH,PrecipitationIn,Events,Conditions,WindDirDegrees,DateUTC
12:53 AM,28.9,26.1,89,30.06,6.0,ENE,5.8,-,N/A,,Clear,70,2008-01-01 05:53:00
1:53 AM,32.0,27.0,82,30.03,7.0,ENE,6.9,-,N/A,,Clear,70,2008-01-01 06:53:00
2:53 AM,30.9,28.0,89,29.99,6.0,East,8.1,-,N/A,,Clear,80,2008-01-01 07:53:00
3:53 AM,34.0,30.9,89,29.94,8.0,ESE,11.5,-,N/A,,Overcast,110,2008-01-01 08:53:00
4:53 AM,37.0,33.1,86,29.90,8.0,SE,8.1,-,N/A,,Overcast,130,2008-01-01 09:53:00
5:53 AM,39.0,35.1,86,29.86,10.0,South,11.5,-,N/A,,Overcast,180,2008-01-01 10:53:00
6:53 AM,39.0,35.1,86,29.85,10.0,South,9.2,-,0.00,Rain,Light Rain,170,2008-01-01 11:53:00
7:53 AM,41.0,36.0,82,29.84,10.0,SSW,13.8,20.7,0.00,,Mostly Cloudy,200,2008-01-01 12:53:00
8:53 AM,42.1,37.0,82,29.83,10.0,SSW,9.2,-,N/A,,Overcast,210,2008-01-01 13:53:00
9:53 AM,43.0,37.0,80,29.83,10.0,SW,10.4,-,N/A,,Mostly Cloudy,220,2008-01-01 14:53:00
10:53 AM,45.0,32.0,60,29.81,10.0,WSW,18.4,25.3,N/A,,Scattered Clouds,240,2008-01-01 15:53:00
11:53 AM,46.9,27.0,46,29.76,10.0,West,36.8,41.4,N/A,,Partly Cloudy,270,2008-01-01 16:53:00
12:53 PM,46.9,24.1,41,29.75,10.0,West,27.6,34.5,N/A,,Clear,260,2008-01-01 17:53:00
1:53 PM,44.1,25.0,47,29.76,10.0,WNW,20.7,-,N/A,,Partly Cloudy,290,2008-01-01 18:53:00
2:53 PM,43.0,23.0,45,29.78,10.0,West,18.4,-,N/A,,Clear,280,2008-01-01 19:53:00
3:53 PM,41.0,21.9,47,29.78,10.0,West,18.4,26.5,N/A,,Overcast,270,2008-01-01 20:53:00
4:53 PM,39.0,21.9,50,29.79,10.0,West,23.0,31.1,N/A,,Partly Cloudy,280,2008-01-01 21:53:00
5:53 PM,37.9,21.9,53,29.82,10.0,West,18.4,25.3,N/A,,Overcast,270,2008-01-01 22:53:00
6:53 PM,37.0,21.0,52,29.83,10.0,West,18.4,27.6,N/A,,Overcast,270,2008-01-01 23:53:00
7:53 PM,36.0,21.9,57,29.83,10.0,West,19.6,26.5,N/A,,Overcast,270,2008-01-02 00:53:00
8:53 PM,35.1,21.9,59,29.81,10.0,West,16.1,-,N/A,,Overcast,260,2008-01-02 01:53:00
9:53 PM,35.1,21.0,57,29.82,10.0,West,12.7,-,N/A,,Overcast,270,2008-01-02 02:53:00
10:53 PM,34.0,21.0,59,29.80,10.0,West,18.4,25.3,N/A,,Overcast,270,2008-01-02 03:53:00
11:53 PM,34.0,21.0,59,29.81,10.0,West,16.1,26.5,N/A,,Overcast,270,2008-01-02 04:53:00